sensor_id;sensor_type;location;lat;lon;timestamp;pressure;altitude;pressure_sealevel;temperature;humidity
71105;BME280;58760;48.716;8.962;2023-02-26T00:01:21;95937.84;;;-0.14;70.07
71105;BME280;58760;48.716;8.962;2023-02-26T00:03:48;95931.81;;;-0.15;69.94
71105;BME280;58760;48.716;8.962;2023-02-26T00:06:14;95934.66;;;-0.07;69.65
71105;BME280;58760;48.716;8.962;2023-02-26T00:08:39;95933.34;;;-0.12;69.57
71105;BME280;58760;48.716;8.962;2023-02-26T00:11:06;95942.47;;;-0.18;69.16
71105;BME280;58760;48.716;8.962;2023-02-26T00:13:31;95941.31;;;-0.25;69.75
71105;BME280;58760;48.716;8.962;2023-02-26T00:16:00;95942.00;;;-0.23;69.68
71105;BME280;58760;48.716;8.962;2023-02-26T00:18:26;95939.63;;;-0.26;69.92
71105;BME280;58760;48.716;8.962;2023-02-26T00:20:52;95942.88;;;-0.33;70.02
71105;BME280;58760;48.716;8.962;2023-02-26T00:23:18;95938.16;;;-0.39;70.56
71105;BME280;58760;48.716;8.962;2023-02-26T00:25:44;95943.38;;;-0.39;70.25
71105;BME280;58760;48.716;8.962;2023-02-26T00:28:10;95949.63;;;-0.42;69.44
71105;BME280;58760;48.716;8.962;2023-02-26T00:30:36;95947.38;;;-0.46;70.13
71105;BME280;58760;48.716;8.962;2023-02-26T00:33:02;95942.19;;;-0.46;70.73
71105;BME280;58760;48.716;8.962;2023-02-26T00:35:28;95946.91;;;-0.40;70.48
71105;BME280;58760;48.716;8.962;2023-02-26T00:38:00;95949.16;;;-0.36;69.95
71105;BME280;58760;48.716;8.962;2023-02-26T00:43:04;95948.81;;;-0.42;70.17
71105;BME280;58760;48.716;8.962;2023-02-26T00:45:30;95950.59;;;-0.43;70.32
71105;BME280;58760;48.716;8.962;2023-02-26T00:50:53;95948.56;;;-0.50;69.93
71105;BME280;58760;48.716;8.962;2023-02-26T00:53:57;95950.81;;;-0.57;69.64
71105;BME280;58760;48.716;8.962;2023-02-26T00:56:25;95952.38;;;-0.66;70.25
71105;BME280;58760;48.716;8.962;2023-02-26T00:58:50;95949.63;;;-0.64;70.23
71105;BME280;58760;48.716;8.962;2023-02-26T01:01:15;95947.16;;;-0.66;70.05
71105;BME280;58760;48.716;8.962;2023-02-26T01:03:41;95937.00;;;-0.69;70.00
71105;BME280;58760;48.716;8.962;2023-02-26T01:06:12;95943.25;;;-0.71;70.16
71105;BME280;58760;48.716;8.962;2023-02-26T01:09:02;95954.03;;;-0.76;69.96
71105;BME280;58760;48.716;8.962;2023-02-26T01:11:31;95950.84;;;-0.79;70.16
71105;BME280;58760;48.716;8.962;2023-02-26T01:13:56;95942.91;;;-0.89;70.75
71105;BME280;58760;48.716;8.962;2023-02-26T01:16:26;95942.41;;;-0.94;70.71
71105;BME280;58760;48.716;8.962;2023-02-26T01:18:59;95947.50;;;-1.03;70.86
71105;BME280;58760;48.716;8.962;2023-02-26T01:21:32;95942.28;;;-1.03;71.04
71105;BME280;58760;48.716;8.962;2023-02-26T01:24:02;95946.09;;;-1.08;71.33
71105;BME280;58760;48.716;8.962;2023-02-26T01:26:29;95939.09;;;-1.07;70.54
71105;BME280;58760;48.716;8.962;2023-02-26T01:28:55;95940.75;;;-1.17;70.66
71105;BME280;58760;48.716;8.962;2023-02-26T01:34:23;95939.66;;;-1.26;71.15
71105;BME280;58760;48.716;8.962;2023-02-26T01:36:55;95936.34;;;-1.28;71.13
71105;BME280;58760;48.716;8.962;2023-02-26T01:39:35;95941.44;;;-1.26;71.38
71105;BME280;58760;48.716;8.962;2023-02-26T01:44:36;95942.72;;;-1.32;71.85
71105;BME280;58760;48.716;8.962;2023-02-26T01:49:52;95946.16;;;-1.31;71.23
71105;BME280;58760;48.716;8.962;2023-02-26T01:55:20;95947.31;;;-1.46;71.90
71105;BME280;58760;48.716;8.962;2023-02-26T01:57:47;95953.84;;;-1.41;72.05
71105;BME280;58760;48.716;8.962;2023-02-26T02:00:14;95942.00;;;-1.45;72.27
71105;BME280;58760;48.716;8.962;2023-02-26T02:02:40;95946.25;;;-1.44;72.28
71105;BME280;58760;48.716;8.962;2023-02-26T02:05:15;95947.41;;;-1.48;71.97
71105;BME280;58760;48.716;8.962;2023-02-26T02:07:43;95952.16;;;-1.53;72.08
71105;BME280;58760;48.716;8.962;2023-02-26T02:10:09;95951.63;;;-1.58;72.51
71105;BME280;58760;48.716;8.962;2023-02-26T02:12:44;95948.59;;;-1.52;72.80
71105;BME280;58760;48.716;8.962;2023-02-26T02:15:19;95949.56;;;-1.53;72.63
71105;BME280;58760;48.716;8.962;2023-02-26T02:23:26;95962.09;;;-1.47;72.33
71105;BME280;58760;48.716;8.962;2023-02-26T02:26:21;95958.44;;;-1.44;72.06
71105;BME280;58760;48.716;8.962;2023-02-26T02:32:28;95957.91;;;-1.61;71.94
71105;BME280;58760;48.716;8.962;2023-02-26T02:34:53;95968.63;;;-1.65;72.20
71105;BME280;58760;48.716;8.962;2023-02-26T02:37:39;95967.31;;;-1.71;72.19
71105;BME280;58760;48.716;8.962;2023-02-26T02:40:30;95971.31;;;-1.78;72.25
71105;BME280;58760;48.716;8.962;2023-02-26T02:43:01;95970.69;;;-1.81;72.57
71105;BME280;58760;48.716;8.962;2023-02-26T02:45:34;95974.97;;;-1.80;72.88
71105;BME280;58760;48.716;8.962;2023-02-26T02:48:11;95971.38;;;-1.90;72.99
71105;BME280;58760;48.716;8.962;2023-02-26T02:50:45;95975.88;;;-1.92;73.05
71105;BME280;58760;48.716;8.962;2023-02-26T02:53:22;95973.03;;;-1.89;73.12
71105;BME280;58760;48.716;8.962;2023-02-26T02:56:01;95983.97;;;-1.97;73.76
71105;BME280;58760;48.716;8.962;2023-02-26T02:58:33;95982.66;;;-2.02;73.62
71105;BME280;58760;48.716;8.962;2023-02-26T03:01:05;95983.09;;;-2.08;74.06
71105;BME280;58760;48.716;8.962;2023-02-26T03:06:06;95994.00;;;-2.03;74.03
71105;BME280;58760;48.716;8.962;2023-02-26T03:08:36;95987.47;;;-2.09;73.87
71105;BME280;58760;48.716;8.962;2023-02-26T03:11:02;95991.81;;;-2.09;74.09
71105;BME280;58760;48.716;8.962;2023-02-26T03:13:28;95993.50;;;-2.08;74.13
71105;BME280;58760;48.716;8.962;2023-02-26T03:16:17;95999.00;;;-2.13;74.41
71105;BME280;58760;48.716;8.962;2023-02-26T03:21:48;96005.03;;;-2.13;74.18
71105;BME280;58760;48.716;8.962;2023-02-26T03:24:39;96007.50;;;-2.11;74.40
71105;BME280;58760;48.716;8.962;2023-02-26T03:29:52;96001.38;;;-2.10;74.63
71105;BME280;58760;48.716;8.962;2023-02-26T03:35:20;96019.28;;;-2.05;74.53
71105;BME280;58760;48.716;8.962;2023-02-26T03:37:54;96019.03;;;-2.02;75.31
71105;BME280;58760;48.716;8.962;2023-02-26T03:40:26;96011.25;;;-2.02;74.77
71105;BME280;58760;48.716;8.962;2023-02-26T03:43:08;96011.06;;;-2.12;75.09
71105;BME280;58760;48.716;8.962;2023-02-26T03:45:36;96019.72;;;-2.24;75.14
71105;BME280;58760;48.716;8.962;2023-02-26T03:48:05;96009.09;;;-2.08;75.08
71105;BME280;58760;48.716;8.962;2023-02-26T03:50:53;96018.88;;;-2.12;75.31
71105;BME280;58760;48.716;8.962;2023-02-26T03:53:25;96020.94;;;-2.17;75.72
71105;BME280;58760;48.716;8.962;2023-02-26T03:56:01;96018.47;;;-2.19;75.82
71105;BME280;58760;48.716;8.962;2023-02-26T03:58:28;96009.91;;;-2.08;75.19
71105;BME280;58760;48.716;8.962;2023-02-26T04:01:01;96018.13;;;-2.14;75.50
71105;BME280;58760;48.716;8.962;2023-02-26T04:03:33;96025.50;;;-2.08;75.10
71105;BME280;58760;48.716;8.962;2023-02-26T04:06:01;96028.66;;;-2.16;75.22
71105;BME280;58760;48.716;8.962;2023-02-26T04:08:27;96019.28;;;-2.05;74.67
71105;BME280;58760;48.716;8.962;2023-02-26T04:13:21;96026.53;;;-2.11;75.28
71105;BME280;58760;48.716;8.962;2023-02-26T04:15:46;96025.53;;;-2.21;74.81
71105;BME280;58760;48.716;8.962;2023-02-26T04:18:12;96020.47;;;-2.22;75.51
71105;BME280;58760;48.716;8.962;2023-02-26T04:20:37;96027.81;;;-2.16;75.61
71105;BME280;58760;48.716;8.962;2023-02-26T04:23:02;96029.78;;;-2.20;75.37
71105;BME280;58760;48.716;8.962;2023-02-26T04:25:28;96030.22;;;-2.26;75.06
71105;BME280;58760;48.716;8.962;2023-02-26T04:27:53;96034.31;;;-2.34;75.68
71105;BME280;58760;48.716;8.962;2023-02-26T04:30:19;96034.09;;;-2.31;75.90
71105;BME280;58760;48.716;8.962;2023-02-26T04:32:44;96035.34;;;-2.37;75.82
71105;BME280;58760;48.716;8.962;2023-02-26T04:35:09;96037.66;;;-2.45;76.32
71105;BME280;58760;48.716;8.962;2023-02-26T04:37:35;96036.91;;;-2.47;76.46
71105;BME280;58760;48.716;8.962;2023-02-26T04:40:00;96044.69;;;-2.47;76.46
71105;BME280;58760;48.716;8.962;2023-02-26T04:42:26;96048.13;;;-2.46;76.46
71105;BME280;58760;48.716;8.962;2023-02-26T04:44:51;96042.88;;;-2.57;76.96
71105;BME280;58760;48.716;8.962;2023-02-26T04:47:16;96046.59;;;-2.61;77.20
71105;BME280;58760;48.716;8.962;2023-02-26T04:49:42;96048.34;;;-2.62;77.19
71105;BME280;58760;48.716;8.962;2023-02-26T04:52:07;96050.44;;;-2.67;77.53
71105;BME280;58760;48.716;8.962;2023-02-26T04:54:33;96049.69;;;-2.69;77.47
71105;BME280;58760;48.716;8.962;2023-02-26T04:56:58;96053.47;;;-2.73;77.84
71105;BME280;58760;48.716;8.962;2023-02-26T04:59:23;96045.69;;;-2.73;77.81
71105;BME280;58760;48.716;8.962;2023-02-26T05:01:49;96045.44;;;-2.83;77.96
71105;BME280;58760;48.716;8.962;2023-02-26T05:04:14;96055.81;;;-2.83;78.01
71105;BME280;58760;48.716;8.962;2023-02-26T05:06:39;96059.66;;;-2.88;78.54
71105;BME280;58760;48.716;8.962;2023-02-26T05:09:06;96063.72;;;-2.84;78.40
71105;BME280;58760;48.716;8.962;2023-02-26T05:11:31;96068.38;;;-2.89;78.57
71105;BME280;58760;48.716;8.962;2023-02-26T05:13:57;96079.50;;;-2.87;78.69
71105;BME280;58760;48.716;8.962;2023-02-26T05:16:22;96064.88;;;-2.88;78.94
71105;BME280;58760;48.716;8.962;2023-02-26T05:18:47;96070.69;;;-2.85;78.79
71105;BME280;58760;48.716;8.962;2023-02-26T05:21:13;96068.19;;;-2.86;78.88
71105;BME280;58760;48.716;8.962;2023-02-26T05:23:38;96071.72;;;-2.87;78.74
71105;BME280;58760;48.716;8.962;2023-02-26T05:26:04;96073.81;;;-2.80;78.81
71105;BME280;58760;48.716;8.962;2023-02-26T05:28:29;96081.06;;;-2.85;78.64
71105;BME280;58760;48.716;8.962;2023-02-26T05:30:55;96085.19;;;-2.95;78.73
71105;BME280;58760;48.716;8.962;2023-02-26T05:33:21;96082.31;;;-2.90;79.22
71105;BME280;58760;48.716;8.962;2023-02-26T05:35:46;96081.34;;;-2.89;79.10
71105;BME280;58760;48.716;8.962;2023-02-26T05:38:13;96087.72;;;-2.93;79.12
71105;BME280;58760;48.716;8.962;2023-02-26T05:40:39;96091.22;;;-2.94;79.17
71105;BME280;58760;48.716;8.962;2023-02-26T05:43:04;96086.03;;;-2.94;79.24
71105;BME280;58760;48.716;8.962;2023-02-26T05:45:30;96084.56;;;-2.98;79.39
71105;BME280;58760;48.716;8.962;2023-02-26T05:47:55;96094.31;;;-3.02;79.47
71105;BME280;58760;48.716;8.962;2023-02-26T05:50:21;96088.72;;;-2.96;79.53
71105;BME280;58760;48.716;8.962;2023-02-26T05:52:46;96092.47;;;-3.00;79.55
71105;BME280;58760;48.716;8.962;2023-02-26T05:55:11;96099.22;;;-2.97;79.80
71105;BME280;58760;48.716;8.962;2023-02-26T05:57:37;96101.59;;;-2.94;79.76
71105;BME280;58760;48.716;8.962;2023-02-26T06:00:04;96108.88;;;-2.99;79.96
71105;BME280;58760;48.716;8.962;2023-02-26T06:02:30;96103.78;;;-3.01;80.09
71105;BME280;58760;48.716;8.962;2023-02-26T06:04:55;96108.97;;;-3.01;79.99
71105;BME280;58760;48.716;8.962;2023-02-26T06:07:20;96113.88;;;-2.96;79.97
71105;BME280;58760;48.716;8.962;2023-02-26T06:09:45;96114.28;;;-3.02;79.93
71105;BME280;58760;48.716;8.962;2023-02-26T06:12:11;96112.47;;;-3.02;79.97
71105;BME280;58760;48.716;8.962;2023-02-26T06:14:36;96128.16;;;-3.03;80.02
71105;BME280;58760;48.716;8.962;2023-02-26T06:17:03;96129.84;;;-3.02;80.16
71105;BME280;58760;48.716;8.962;2023-02-26T06:19:28;96142.97;;;-3.05;79.98
71105;BME280;58760;48.716;8.962;2023-02-26T06:21:54;96132.94;;;-3.10;80.41
71105;BME280;58760;48.716;8.962;2023-02-26T06:24:19;96143.09;;;-3.07;80.37
71105;BME280;58760;48.716;8.962;2023-02-26T06:26:44;96154.72;;;-3.12;80.11
71105;BME280;58760;48.716;8.962;2023-02-26T06:29:10;96152.66;;;-3.07;80.43
71105;BME280;58760;48.716;8.962;2023-02-26T06:31:35;96157.75;;;-3.06;80.22
71105;BME280;58760;48.716;8.962;2023-02-26T06:34:00;96160.16;;;-3.03;80.33
71105;BME280;58760;48.716;8.962;2023-02-26T06:36:26;96162.63;;;-3.01;80.34
71105;BME280;58760;48.716;8.962;2023-02-26T06:38:51;96171.34;;;-3.02;80.30
71105;BME280;58760;48.716;8.962;2023-02-26T06:41:17;96175.72;;;-3.03;80.37
71105;BME280;58760;48.716;8.962;2023-02-26T06:43:42;96180.91;;;-3.03;80.41
71105;BME280;58760;48.716;8.962;2023-02-26T06:46:07;96175.09;;;-2.94;79.94
71105;BME280;58760;48.716;8.962;2023-02-26T06:48:33;96184.66;;;-2.94;80.01
71105;BME280;58760;48.716;8.962;2023-02-26T06:50:58;96182.25;;;-2.97;80.05
71105;BME280;58760;48.716;8.962;2023-02-26T06:53:23;96190.25;;;-3.00;80.21
71105;BME280;58760;48.716;8.962;2023-02-26T06:55:50;96196.28;;;-3.00;80.37
71105;BME280;58760;48.716;8.962;2023-02-26T06:58:16;96199.59;;;-2.98;80.16
71105;BME280;58760;48.716;8.962;2023-02-26T07:00:42;96201.91;;;-2.93;80.12
71105;BME280;58760;48.716;8.962;2023-02-26T07:03:12;96204.81;;;-2.85;79.99
71105;BME280;58760;48.716;8.962;2023-02-26T07:05:39;96209.03;;;-2.70;79.70
71105;BME280;58760;48.716;8.962;2023-02-26T07:08:05;96209.47;;;-2.51;79.14
71105;BME280;58760;48.716;8.962;2023-02-26T07:10:34;96215.91;;;-2.44;78.50
71105;BME280;58760;48.716;8.962;2023-02-26T07:13:00;96206.56;;;-2.34;78.66
71105;BME280;58760;48.716;8.962;2023-02-26T07:15:26;96219.59;;;-2.21;78.27
71105;BME280;58760;48.716;8.962;2023-02-26T07:17:51;96214.69;;;-2.00;77.74
71105;BME280;58760;48.716;8.962;2023-02-26T07:20:17;96214.88;;;-1.91;76.61
71105;BME280;58760;48.716;8.962;2023-02-26T07:22:43;96218.03;;;-1.98;76.61
71105;BME280;58760;48.716;8.962;2023-02-26T07:25:09;96226.97;;;-2.02;76.97
71105;BME280;58760;48.716;8.962;2023-02-26T07:27:35;96218.63;;;-2.07;76.93
71105;BME280;58760;48.716;8.962;2023-02-26T07:30:01;96224.66;;;-2.07;76.93
71105;BME280;58760;48.716;8.962;2023-02-26T07:32:27;96214.19;;;-1.93;76.88
71105;BME280;58760;48.716;8.962;2023-02-26T07:34:53;96223.44;;;-1.89;76.21
71105;BME280;58760;48.716;8.962;2023-02-26T07:37:18;96225.00;;;-1.99;76.49
71105;BME280;58760;48.716;8.962;2023-02-26T07:39:44;96235.47;;;-2.00;76.78
71105;BME280;58760;48.716;8.962;2023-02-26T07:42:09;96233.63;;;-1.86;76.37
71105;BME280;58760;48.716;8.962;2023-02-26T07:44:34;96232.16;;;-1.77;76.28
71105;BME280;58760;48.716;8.962;2023-02-26T07:47:00;96239.31;;;-1.68;75.88
71105;BME280;58760;48.716;8.962;2023-02-26T07:49:25;96239.09;;;-1.65;75.52
71105;BME280;58760;48.716;8.962;2023-02-26T07:51:51;96229.41;;;-1.50;75.72
71105;BME280;58760;48.716;8.962;2023-02-26T07:54:16;96237.25;;;-1.27;74.42
71105;BME280;58760;48.716;8.962;2023-02-26T07:56:42;96238.25;;;-1.17;73.96
71105;BME280;58760;48.716;8.962;2023-02-26T07:59:08;96232.25;;;-0.93;73.70
71105;BME280;58760;48.716;8.962;2023-02-26T08:01:34;96238.59;;;-0.85;72.69
71105;BME280;58760;48.716;8.962;2023-02-26T08:03:59;96246.88;;;-1.03;74.29
71105;BME280;58760;48.716;8.962;2023-02-26T08:06:25;96243.56;;;-1.06;72.78
71105;BME280;58760;48.716;8.962;2023-02-26T08:08:50;96239.97;;;-0.92;73.00
71105;BME280;58760;48.716;8.962;2023-02-26T08:11:16;96251.69;;;-1.10;72.47
71105;BME280;58760;48.716;8.962;2023-02-26T08:13:41;96247.44;;;-1.11;72.74
71105;BME280;58760;48.716;8.962;2023-02-26T08:16:06;96250.81;;;-0.98;72.92
71105;BME280;58760;48.716;8.962;2023-02-26T08:18:32;96251.34;;;-1.06;72.74
71105;BME280;58760;48.716;8.962;2023-02-26T08:20:57;96251.00;;;-1.25;73.73
71105;BME280;58760;48.716;8.962;2023-02-26T08:23:23;96249.69;;;-1.30;75.66
71105;BME280;58760;48.716;8.962;2023-02-26T08:25:48;96257.78;;;-1.35;76.30
71105;BME280;58760;48.716;8.962;2023-02-26T08:28:14;96263.88;;;-1.11;77.45
71105;BME280;58760;48.716;8.962;2023-02-26T08:30:40;96254.53;;;-0.89;77.60
71105;BME280;58760;48.716;8.962;2023-02-26T08:33:05;96255.16;;;-0.62;77.10
71105;BME280;58760;48.716;8.962;2023-02-26T08:35:30;96253.13;;;-0.35;75.07
71105;BME280;58760;48.716;8.962;2023-02-26T08:37:56;96246.56;;;-0.17;74.19
71105;BME280;58760;48.716;8.962;2023-02-26T08:40:22;96250.88;;;-0.39;74.28
71105;BME280;58760;48.716;8.962;2023-02-26T08:42:47;96248.19;;;-0.16;73.87
71105;BME280;58760;48.716;8.962;2023-02-26T08:45:13;96244.94;;;0.05;73.25
71105;BME280;58760;48.716;8.962;2023-02-26T08:47:39;96257.44;;;-0.12;72.46
71105;BME280;58760;48.716;8.962;2023-02-26T08:50:08;96256.78;;;-0.37;73.54
71105;BME280;58760;48.716;8.962;2023-02-26T08:52:34;96257.09;;;-0.53;74.33
71105;BME280;58760;48.716;8.962;2023-02-26T08:55:00;96264.13;;;-0.66;73.03
71105;BME280;58760;48.716;8.962;2023-02-26T08:57:25;96262.59;;;-0.81;73.55
71105;BME280;58760;48.716;8.962;2023-02-26T08:59:50;96271.44;;;-0.71;73.78
71105;BME280;58760;48.716;8.962;2023-02-26T09:02:16;96265.19;;;-0.69;74.13
71105;BME280;58760;48.716;8.962;2023-02-26T09:04:41;96267.06;;;-0.71;74.05
71105;BME280;58760;48.716;8.962;2023-02-26T09:07:06;96277.09;;;-0.77;73.44
71105;BME280;58760;48.716;8.962;2023-02-26T09:09:32;96276.47;;;-0.81;73.90
71105;BME280;58760;48.716;8.962;2023-02-26T09:11:57;96276.69;;;-0.60;73.40
71105;BME280;58760;48.716;8.962;2023-02-26T09:14:23;96283.13;;;-0.29;72.78
71105;BME280;58760;48.716;8.962;2023-02-26T09:16:48;96284.22;;;-0.21;73.08
71105;BME280;58760;48.716;8.962;2023-02-26T09:19:14;96283.16;;;-0.18;72.42
71105;BME280;58760;48.716;8.962;2023-02-26T09:21:39;96284.47;;;-0.13;71.49
71105;BME280;58760;48.716;8.962;2023-02-26T09:24:05;96285.34;;;-0.36;72.04
71105;BME280;58760;48.716;8.962;2023-02-26T09:26:30;96290.72;;;-0.50;73.44
71105;BME280;58760;48.716;8.962;2023-02-26T09:28:56;96291.56;;;-0.49;73.47
71105;BME280;58760;48.716;8.962;2023-02-26T09:31:21;96300.63;;;-0.31;73.20
71105;BME280;58760;48.716;8.962;2023-02-26T09:33:46;96302.22;;;-0.52;72.28
71105;BME280;58760;48.716;8.962;2023-02-26T09:36:12;96308.75;;;-0.47;73.94
71105;BME280;58760;48.716;8.962;2023-02-26T09:38:37;96295.88;;;-0.37;73.50
71105;BME280;58760;48.716;8.962;2023-02-26T09:41:18;96300.03;;;-0.35;73.94
71105;BME280;58760;48.716;8.962;2023-02-26T09:46:36;96321.94;;;-0.61;74.48
71105;BME280;58760;48.716;8.962;2023-02-26T09:49:19;96324.25;;;-0.69;75.61
71105;BME280;58760;48.716;8.962;2023-02-26T09:51:50;96319.31;;;-0.61;75.11
71105;BME280;58760;48.716;8.962;2023-02-26T09:54:22;96329.91;;;-0.75;75.77
71105;BME280;58760;48.716;8.962;2023-02-26T09:56:50;96323.34;;;-0.81;76.12
71105;BME280;58760;48.716;8.962;2023-02-26T09:59:17;96329.78;;;-0.74;76.40
71105;BME280;58760;48.716;8.962;2023-02-26T10:07:33;96329.81;;;-0.50;75.95
71105;BME280;58760;48.716;8.962;2023-02-26T10:10:16;96321.09;;;-0.62;74.93
71105;BME280;58760;48.716;8.962;2023-02-26T10:12:44;96334.13;;;-0.62;76.21
71105;BME280;58760;48.716;8.962;2023-02-26T10:15:14;96333.69;;;-0.56;76.33
71105;BME280;58760;48.716;8.962;2023-02-26T10:18:05;96337.13;;;-0.55;76.68
71105;BME280;58760;48.716;8.962;2023-02-26T10:20:48;96343.56;;;-0.72;76.01
71105;BME280;58760;48.716;8.962;2023-02-26T10:23:22;96344.94;;;-0.55;77.07
71105;BME280;58760;48.716;8.962;2023-02-26T10:25:57;96339.63;;;-0.30;75.97
71105;BME280;58760;48.716;8.962;2023-02-26T10:28:52;96345.28;;;-0.36;76.56
71105;BME280;58760;48.716;8.962;2023-02-26T10:31:45;96353.34;;;-0.52;76.00
71105;BME280;58760;48.716;8.962;2023-02-26T10:34:23;96345.38;;;-0.61;76.71
71105;BME280;58760;48.716;8.962;2023-02-26T10:42:14;96362.19;;;-0.65;77.17
71105;BME280;58760;48.716;8.962;2023-02-26T10:45:06;96357.50;;;-0.73;77.45
71105;BME280;58760;48.716;8.962;2023-02-26T10:47:46;96358.44;;;-0.74;78.41
71105;BME280;58760;48.716;8.962;2023-02-26T10:50:15;96364.00;;;-0.78;77.13
71105;BME280;58760;48.716;8.962;2023-02-26T10:52:43;96366.44;;;-0.64;77.81
71105;BME280;58760;48.716;8.962;2023-02-26T10:57:55;96361.97;;;-0.62;78.29
71105;BME280;58760;48.716;8.962;2023-02-26T11:00:22;96359.56;;;-0.65;77.83
71105;BME280;58760;48.716;8.962;2023-02-26T11:02:49;96363.25;;;-0.44;77.23
71105;BME280;58760;48.716;8.962;2023-02-26T11:05:21;96360.53;;;-0.42;76.05
71105;BME280;58760;48.716;8.962;2023-02-26T11:07:51;96360.72;;;-0.33;76.25
71105;BME280;58760;48.716;8.962;2023-02-26T11:10:26;96363.03;;;-0.41;76.65
71105;BME280;58760;48.716;8.962;2023-02-26T11:12:52;96363.88;;;-0.17;75.35
71105;BME280;58760;48.716;8.962;2023-02-26T11:15:20;96352.53;;;-0.05;75.67
71105;BME280;58760;48.716;8.962;2023-02-26T11:17:48;96354.00;;;0.11;74.11
71105;BME280;58760;48.716;8.962;2023-02-26T11:20:33;96352.84;;;0.15;73.54
71105;BME280;58760;48.716;8.962;2023-02-26T11:23:03;96346.84;;;0.25;73.03
71105;BME280;58760;48.716;8.962;2023-02-26T11:25:31;96352.78;;;0.38;73.34
71105;BME280;58760;48.716;8.962;2023-02-26T11:28:05;96350.28;;;0.37;72.13
71105;BME280;58760;48.716;8.962;2023-02-26T11:30:35;96348.97;;;0.31;72.02
71105;BME280;58760;48.716;8.962;2023-02-26T11:33:22;96351.50;;;0.44;71.88
71105;BME280;58760;48.716;8.962;2023-02-26T11:35:49;96355.31;;;0.62;70.12
71105;BME280;58760;48.716;8.962;2023-02-26T11:38:24;96348.41;;;0.50;70.18
71105;BME280;58760;48.716;8.962;2023-02-26T11:40:55;96353.91;;;0.58;70.27
71105;BME280;58760;48.716;8.962;2023-02-26T11:43:23;96348.41;;;0.39;69.47
71105;BME280;58760;48.716;8.962;2023-02-26T11:45:55;96350.28;;;0.37;70.13
71105;BME280;58760;48.716;8.962;2023-02-26T11:48:25;96342.97;;;0.75;68.79
71105;BME280;58760;48.716;8.962;2023-02-26T11:50:55;96351.66;;;0.76;68.65
71105;BME280;58760;48.716;8.962;2023-02-26T11:53:31;96361.84;;;0.57;69.28
71105;BME280;58760;48.716;8.962;2023-02-26T11:56:02;96365.75;;;0.62;69.37
71105;BME280;58760;48.716;8.962;2023-02-26T11:58:36;96361.69;;;0.47;68.83
71105;BME280;58760;48.716;8.962;2023-02-26T12:01:03;96353.91;;;0.58;67.72
71105;BME280;58760;48.716;8.962;2023-02-26T12:03:32;96359.19;;;0.34;68.14
71105;BME280;58760;48.716;8.962;2023-02-26T12:05:59;96358.75;;;0.51;68.67
71105;BME280;58760;48.716;8.962;2023-02-26T12:08:34;96355.28;;;0.40;66.61
71105;BME280;58760;48.716;8.962;2023-02-26T12:16:43;96348.31;;;0.51;67.18
71105;BME280;58760;48.716;8.962;2023-02-26T12:19:26;96360.53;;;0.62;67.05
71105;BME280;58760;48.716;8.962;2023-02-26T12:25:21;96360.94;;;0.23;68.96
71105;BME280;58760;48.716;8.962;2023-02-26T12:36:04;96363.28;;;0.61;69.56
71105;BME280;58760;48.716;8.962;2023-02-26T12:38:43;96364.13;;;0.83;67.75
71105;BME280;58760;48.716;8.962;2023-02-26T12:43:54;96366.94;;;0.69;67.51
71105;BME280;58760;48.716;8.962;2023-02-26T12:46:44;96366.22;;;0.56;67.80
71105;BME280;58760;48.716;8.962;2023-02-26T12:55:05;96378.56;;;0.54;68.22
71105;BME280;58760;48.716;8.962;2023-02-26T12:58:09;96386.59;;;0.40;68.96
71105;BME280;58760;48.716;8.962;2023-02-26T13:05:45;96376.91;;;0.18;68.75
71105;BME280;58760;48.716;8.962;2023-02-26T13:13:31;96382.63;;;0.91;67.39
71105;BME280;58760;48.716;8.962;2023-02-26T13:18:59;96391.91;;;1.29;64.08
71105;BME280;58760;48.716;8.962;2023-02-26T13:21:35;96372.19;;;1.25;64.53
71105;BME280;58760;48.716;8.962;2023-02-26T13:24:06;96376.72;;;1.23;65.68
71105;BME280;58760;48.716;8.962;2023-02-26T13:26:33;96372.56;;;1.31;64.67
71105;BME280;58760;48.716;8.962;2023-02-26T13:29:20;96379.06;;;1.37;64.99
71105;BME280;58760;48.716;8.962;2023-02-26T13:31:59;96372.78;;;1.28;64.61
71105;BME280;58760;48.716;8.962;2023-02-26T13:37:32;96393.34;;;1.22;63.64
71105;BME280;58760;48.716;8.962;2023-02-26T13:51:43;96389.53;;;1.15;63.07
71105;BME280;58760;48.716;8.962;2023-02-26T14:01:52;96382.75;;;1.45;60.34
71105;BME280;58760;48.716;8.962;2023-02-26T14:06:48;96399.03;;;1.38;60.42
71105;BME280;58760;48.716;8.962;2023-02-26T14:09:44;96395.84;;;1.45;61.08
71105;BME280;58760;48.716;8.962;2023-02-26T14:17:29;96386.09;;;3.75;55.73
71105;BME280;58760;48.716;8.962;2023-02-26T14:22:47;96381.69;;;6.37;49.14
71105;BME280;58760;48.716;8.962;2023-02-26T14:25:29;96381.38;;;5.03;50.14
71105;BME280;58760;48.716;8.962;2023-02-26T14:28:17;96389.63;;;3.55;53.05
71105;BME280;58760;48.716;8.962;2023-02-26T14:30:46;96397.81;;;3.01;55.64
71105;BME280;58760;48.716;8.962;2023-02-26T14:33:16;96394.78;;;2.75;57.01
71105;BME280;58760;48.716;8.962;2023-02-26T14:35:46;96393.19;;;2.63;57.40
71105;BME280;58760;48.716;8.962;2023-02-26T14:38:36;96405.81;;;2.37;57.32
71105;BME280;58760;48.716;8.962;2023-02-26T14:41:05;96397.31;;;2.45;56.25
71105;BME280;58760;48.716;8.962;2023-02-26T14:43:40;96400.28;;;3.63;54.35
71105;BME280;58760;48.716;8.962;2023-02-26T14:46:08;96392.09;;;4.06;52.44
71105;BME280;58760;48.716;8.962;2023-02-26T14:48:35;96400.81;;;3.57;52.98
71105;BME280;58760;48.716;8.962;2023-02-26T14:51:22;96395.81;;;3.44;52.33
71105;BME280;58760;48.716;8.962;2023-02-26T14:54:10;96418.97;;;2.68;55.06
71105;BME280;58760;48.716;8.962;2023-02-26T15:05:03;96417.44;;;1.58;57.13
71105;BME280;58760;48.716;8.962;2023-02-26T15:08:01;96423.25;;;1.40;56.78
71105;BME280;58760;48.716;8.962;2023-02-26T15:21:39;96425.53;;;2.41;52.79
71105;BME280;58760;48.716;8.962;2023-02-26T15:24:10;96422.91;;;2.09;53.31
71105;BME280;58760;48.716;8.962;2023-02-26T15:26:41;96423.78;;;1.99;54.44
71105;BME280;58760;48.716;8.962;2023-02-26T15:29:10;96427.94;;;2.01;54.53
71105;BME280;58760;48.716;8.962;2023-02-26T15:31:52;96443.50;;;2.14;53.92
71105;BME280;58760;48.716;8.962;2023-02-26T15:34:19;96426.91;;;1.82;53.77
71105;BME280;58760;48.716;8.962;2023-02-26T15:36:46;96432.84;;;1.73;53.67
71105;BME280;58760;48.716;8.962;2023-02-26T15:39:15;96440.09;;;1.69;53.88
71105;BME280;58760;48.716;8.962;2023-02-26T15:41:42;96433.50;;;1.65;53.99
71105;BME280;58760;48.716;8.962;2023-02-26T15:44:09;96437.78;;;1.55;54.41